Home > Products > Valid Products > TAF

000
FTUS45 KMSO 281834 AAA
TAFMSO
TAF AMD
KMSO 281834Z 2819/0118 14015KT P6SM SCT150
     FM282000 10010KT P6SM FEW150=



000
FTUS45 KMSO 281834 AAA
TAFMSO
TAF AMD
KMSO 281834Z 2819/0118 14015KT P6SM SCT150
     FM282000 10010KT P6SM FEW150=



000
FTUS45 KMSO 281720
TAFMSO
TAF
KMSO 281720Z 2818/0118 10007KT P6SM SCT150=



000
FTUS45 KMSO 281720
TAFGPI
TAF
KGPI 281720Z 2818/0118 02005KT P6SM SCT200=



000
FTUS45 KMSO 281720
TAFSMN
TAF
KSMN 281720Z 2818/0118 04010KT P6SM BKN050
      AMD LTD TO CLD VIS AND WIND=



000
FTUS45 KMSO 281720
TAFBTM
TAF
KBTM 281720Z 2818/0118 VRB03KT P6SM VCSH BKN040
     FM281900 33007KT P6SM SCT150=



000
FTUS45 KMSO 281720
TAFGPI
TAF
KGPI 281720Z 2818/0118 02005KT P6SM SCT200=



000
FTUS45 KMSO 281720
TAFBTM
TAF
KBTM 281720Z 2818/0118 VRB03KT P6SM VCSH BKN040
     FM281900 33007KT P6SM SCT150=



000
FTUS45 KMSO 281720
TAFSMN
TAF
KSMN 281720Z 2818/0118 04010KT P6SM BKN050
      AMD LTD TO CLD VIS AND WIND=



000
FTUS45 KMSO 281720
TAFMSO
TAF
KMSO 281720Z 2818/0118 10007KT P6SM SCT150=



000
FTUS45 KMSO 281125
TAFMSO
TAF
KMSO 281125Z 2812/0112 11010G20KT P6SM BKN090
     FM281800 10007KT P6SM SCT150=



000
FTUS45 KMSO 281125
TAFGPI
TAF
KGPI 281125Z 2812/0112 02009KT P6SM SCT150
     FM281800 02005KT P6SM SCT200=



000
FTUS45 KMSO 281125
TAFBTM
TAF
KBTM 281125Z 2812/0112 32005KT P6SM VCSH BKN030
     FM281800 VRB03KT P6SM BKN100=



000
FTUS45 KMSO 281125
TAFSMN
TAF
KSMN 281125Z 2812/0112 13010KT P6SM VCSH BKN050
     FM281400 03007KT 6SM -SHSN OVC040
     FM281700 02007KT P6SM VCSH BKN050
      AMD LTD TO CLD VIS AND WIND=



000
FTUS45 KMSO 280520
TAFMSO
TAF
KMSO 280520Z 2806/0106 08012G25KT P6SM BKN070
     FM280800 11010G20KT P6SM SCT150
     FM281800 10007KT P6SM SCT150=



000
FTUS45 KMSO 280520
TAFMSO
TAF
KMSO 280520Z 2806/0106 08012G25KT P6SM BKN070
     FM280800 11010G20KT P6SM SCT150
     FM281800 10007KT P6SM SCT150=



000
FTUS45 KMSO 280520
TAFSMN
TAF
KSMN 280520Z 2806/0106 11015G22KT P6SM VCSH BKN060
     FM280800 03010KT P6SM VCSH BKN050
     FM281400 03005KT 6SM -SHSN BR OVC050
     FM281600 02006KT P6SM VCSH BKN050
      AMD LTD TO CLD VIS AND WIND=



000
FTUS45 KMSO 280520
TAFGPI
TAF
KGPI 280520Z 2806/0106 04018G25KT P6SM FEW070 SCT150
     FM280900 02009KT P6SM SCT150=



000
FTUS45 KMSO 280520
TAFBTM
TAF
KBTM 280520Z 2806/0106 32005KT P6SM VCSH OVC070
     FM281500 VRB03KT P6SM BKN100=



000
FTUS45 KMSO 280520
TAFGPI
TAF
KGPI 280520Z 2806/0106 04018G25KT P6SM FEW070 SCT150
     FM280900 02009KT P6SM SCT150=



000
FTUS45 KMSO 280520
TAFBTM
TAF
KBTM 280520Z 2806/0106 32005KT P6SM VCSH OVC070
     FM281500 VRB03KT P6SM BKN100=



000
FTUS45 KMSO 280520
TAFSMN
TAF
KSMN 280520Z 2806/0106 11015G22KT P6SM VCSH BKN060
     FM280800 03010KT P6SM VCSH BKN050
     FM281400 03005KT 6SM -SHSN BR OVC050
     FM281600 02006KT P6SM VCSH BKN050
      AMD LTD TO CLD VIS AND WIND=



000
FTUS45 KMSO 280301 AAA
TAFSMN
TAF AMD
KSMN 280301Z 2803/2824 13015KT P6SM VCSH SCT050 BKN080
     FM280600 02009KT P6SM BKN050
     FM281000 02007KT P6SM VCSH BKN035
     FM281200 03005KT 4SM -SHSN BR OVC035
     FM281600 02006KT P6SM VCSH BKN050
      AMD LTD TO CLD VIS AND WIND=



000
FTUS45 KMSO 280301 AAA
TAFSMN
TAF AMD
KSMN 280301Z 2803/2824 13015KT P6SM VCSH SCT050 BKN080
     FM280600 02009KT P6SM BKN050
     FM281000 02007KT P6SM VCSH BKN035
     FM281200 03005KT 4SM -SHSN BR OVC035
     FM281600 02006KT P6SM VCSH BKN050
      AMD LTD TO CLD VIS AND WIND=



000
FTUS45 KMSO 280250 AAC
TAFBTM
TAF AMD
KBTM 280250Z 2803/2824 01009KT P6SM VCSH OVC050
     FM281200 06005KT 5SM -SN BR OVC030=



000
FTUS45 KMSO 280250 AAC
TAFBTM
TAF AMD
KBTM 280250Z 2803/2824 01009KT P6SM VCSH OVC050
     FM281200 06005KT 5SM -SN BR OVC030=



000
FTUS45 KMSO 280101 AAB
TAFBTM
TAF AMD
KBTM 280101Z 2801/2824 16015KT P6SM VCSH OVC050
     FM280300 02008KT 4SM -SN BR OVC030
     FM280600 02006KT P6SM VCSH OVC050
     FM281200 06005KT 5SM -SN BR OVC030=



000
FTUS45 KMSO 280101 AAB
TAFBTM
TAF AMD
KBTM 280101Z 2801/2824 16015KT P6SM VCSH OVC050
     FM280300 02008KT 4SM -SN BR OVC030
     FM280600 02006KT P6SM VCSH OVC050
     FM281200 06005KT 5SM -SN BR OVC030=



000
FTUS45 KMSO 280031 AAA
TAFBTM
TAF AMD
KBTM 280031Z 2801/2824 16015KT P6SM VCSH OVC050
     FM280100 02008KT 4SM -SN BR OVC030
     FM280600 02006KT P6SM VCSH OVC050
     FM281200 06005KT 5SM -SN BR OVC030=



000
FTUS45 KMSO 280031 AAA
TAFBTM
TAF AMD
KBTM 280031Z 2801/2824 16015KT P6SM VCSH OVC050
     FM280100 02008KT 4SM -SN BR OVC030
     FM280600 02006KT P6SM VCSH OVC050
     FM281200 06005KT 5SM -SN BR OVC030=



000
FTUS45 KMSO 272320
TAFMSO
TAF
KMSO 272320Z 2800/2824 08012KT P6SM BKN070
     FM280200 10018G25KT P6SM SCT100
     FM280800 10012G20KT P6SM SCT150
     FM281500 11010KT P6SM SCT150=



000
FTUS45 KMSO 272320
TAFSMN
TAF
KSMN 272320Z 2800/2824 VRB04KT P6SM VCSH SCT050 BKN080
     FM280400 02009KT P6SM BKN050
     FM281000 02007KT P6SM VCSH BKN035
     FM281200 03005KT 4SM -SHSN BR OVC035
     FM281600 02006KT P6SM VCSH BKN050
      AMD LTD TO CLD VIS AND WIND=



000
FTUS45 KMSO 272320
TAFGPI
TAF
KGPI 272320Z 2800/2824 04018G25KT P6SM SCT070 BKN150
     FM280500 02009KT P6SM SCT150=



000
FTUS45 KMSO 272320
TAFBTM
TAF
KBTM 272320Z 2800/2824 09009KT P6SM VCSH OVC050
     FM280100 02008KT 4SM -SN BR OVC030
     FM280600 02006KT P6SM VCSH OVC050
     FM281200 06005KT 5SM -SN BR OVC030=



000
FTUS45 KMSO 272320
TAFBTM
TAF
KBTM 272320Z 2800/2824 09009KT P6SM VCSH OVC050
     FM280100 02008KT 4SM -SN BR OVC030
     FM280600 02006KT P6SM VCSH OVC050
     FM281200 06005KT 5SM -SN BR OVC030=



000
FTUS45 KMSO 272320
TAFMSO
TAF
KMSO 272320Z 2800/2824 08012KT P6SM BKN070
     FM280200 10018G25KT P6SM SCT100
     FM280800 10012G20KT P6SM SCT150
     FM281500 11010KT P6SM SCT150=



000
FTUS45 KMSO 272320
TAFSMN
TAF
KSMN 272320Z 2800/2824 VRB04KT P6SM VCSH SCT050 BKN080
     FM280400 02009KT P6SM BKN050
     FM281000 02007KT P6SM VCSH BKN035
     FM281200 03005KT 4SM -SHSN BR OVC035
     FM281600 02006KT P6SM VCSH BKN050
      AMD LTD TO CLD VIS AND WIND=



000
FTUS45 KMSO 272320
TAFGPI
TAF
KGPI 272320Z 2800/2824 04018G25KT P6SM SCT070 BKN150
     FM280500 02009KT P6SM SCT150=



000
FTUS45 KMSO 272019 AAA
TAFSMN
TAF AMD
KSMN 272019Z 2720/2818 VRB04KT P6SM VCSH SCT050 BKN080
     FM280400 02009KT P6SM BKN050
     FM281000 02007KT P6SM VCSH BKN035
      AMD LTD TO CLD VIS AND WIND=



000
FTUS45 KMSO 271757 CCA
TAFSMN
TAF COR
KSMN 271757Z 2718/2818 VRB04KT P6SM VCSH SCT050 BKN080
      TEMPO 2718/2721 3SM -SHSN BKN025 BKN030
     FM280400 02009KT P6SM BKN050
     FM281000 02007KT P6SM VCSH BKN035
      AMD LTD TO CLD VIS AND WIND=



000
FTUS45 KMSO 271757 CCA
TAFSMN
TAF COR
KSMN 271757Z 2718/2818 VRB04KT P6SM VCSH SCT050 BKN080
      TEMPO 2718/2721 3SM -SHSN BKN025 BKN030
     FM280400 02009KT P6SM BKN050
     FM281000 02007KT P6SM VCSH BKN035
      AMD LTD TO CLD VIS AND WIND=



000
FTUS45 KMSO 271754 CCA
TAFGPI
TAF COR
KGPI 271754Z 2718/2818 03020KT P6SM SCT050 BKN100
     FM272200 03015G20KT P6SM VCSH BKN100
     FM280200 36009KT P6SM SCT150=



000
FTUS45 KMSO 271754 CCA
TAFGPI
TAF COR
KGPI 271754Z 2718/2818 03020KT P6SM SCT050 BKN100
     FM272200 03015G20KT P6SM VCSH BKN100
     FM280200 36009KT P6SM SCT150=



000
FTUS45 KMSO 271720
TAFMSO
TAF
KMSO 271720Z 2718/2818 11010KT P6SM SCT050 SCT100
     FM280200 10018G25KT P6SM SCT100
     FM280800 10012G20KT P6SM SCT150=



000
FTUS45 KMSO 271720
TAFGPI
TAF
KGPI 271720Z 2718/2818 02009KT P6SM SCT050 BKN100
     FM272200 03015G20KT P6SM VCSH BKN100
     FM280200 36009KT P6SM SCT150=



000
FTUS45 KMSO 271720
TAFBTM
TAF
KBTM 271720Z 2718/2818 16006KT P6SM SCT060
     FM272200 04011KT P6SM VCSH BKN040
     FM280200 36008KT 2SM -SN BR OVC030
     FM280600 36006KT P6SM OVC050=



000
FTUS45 KMSO 271720
TAFSMN
TAF
KSMN 271720Z 2718/2818 VRB04KT P6SM VCSH SCT050 BKN080
     FM280400 02009KT P6SM BKN050
     FM281000 02007KT P6SM VCSH BKN035
      AMD LTD TO CLD VIS AND WIND=



000
FTUS45 KMSO 271131
TAFGPI
TAF
KGPI 271131Z 2712/2812 02009KT P6SM SCT050 BKN100
     FM272200 01016G22KT P6SM VCSH BKN100
     FM280200 36009KT P6SM SCT150=



000
FTUS45 KMSO 271131
TAFBTM
TAF
KBTM 271131Z 2712/2812 16006KT P6SM SCT060
     FM272200 04011KT P6SM VCSH BKN040
     FM280200 36008KT 2SM -SN BR OVC030
     FM280600 36006KT P6SM OVC050=



000
FTUS45 KMSO 271131
TAFMSO
TAF
KMSO 271131Z 2712/2812 11010KT P6SM SCT050 SCT100
     FM280000 10018G25KT P6SM SCT100
     FM280800 10012G20KT P6SM SCT150=



000
FTUS45 KMSO 271131
TAFSMN
TAF
KSMN 271131Z 2712/2812 VRB04KT P6SM SCT050 BKN080
     FM280400 02009KT P6SM BKN050
     FM281000 02007KT P6SM VCSH BKN035
      AMD LTD TO CLD VIS AND WIND=



000
FTUS45 KMSO 270520
TAFGPI
TAF
KGPI 270520Z 2706/2806 VRB05KT P6SM SCT050 BKN100
     FM271700 02016KT P6SM BKN100
     FM272300 01016G22KT P6SM SCT100=



000
FTUS45 KMSO 270520
TAFBTM
TAF
KBTM 270520Z 2706/2806 16006KT P6SM SCT060
     FM272200 13011KT P6SM VCSH BKN040=



000
FTUS45 KMSO 270520
TAFSMN
TAF
KSMN 270520Z 2706/2806 VRB04KT P6SM SCT050 BKN080
      AMD LTD TO CLD VIS AND WIND=



000
FTUS45 KMSO 270520
TAFMSO
TAF
KMSO 270520Z 2706/2806 11010KT P6SM SCT050 SCT100
     FM280000 10018G25KT P6SM SCT100=



000
FTUS45 KMSO 270520
TAFGPI
TAF
KGPI 270520Z 2706/2806 VRB05KT P6SM SCT050 BKN100
     FM271700 02016KT P6SM BKN100
     FM272300 01016G22KT P6SM SCT100=



000
FTUS45 KMSO 270520
TAFMSO
TAF
KMSO 270520Z 2706/2806 11010KT P6SM SCT050 SCT100
     FM280000 10018G25KT P6SM SCT100=



000
FTUS45 KMSO 270520
TAFBTM
TAF
KBTM 270520Z 2706/2806 16006KT P6SM SCT060
     FM272200 13011KT P6SM VCSH BKN040=



000
FTUS45 KMSO 270520
TAFSMN
TAF
KSMN 270520Z 2706/2806 VRB04KT P6SM SCT050 BKN080
      AMD LTD TO CLD VIS AND WIND=



000
FTUS45 KMSO 262320
TAFGPI
TAF
KGPI 262320Z 2700/2724 VRB05KT P6SM SCT050 BKN100
     FM271700 02016KT P6SM BKN100=



000
FTUS45 KMSO 262320
TAFSMN
TAF
KSMN 262320Z 2700/2724 VRB04KT P6SM SCT050 BKN100
      AMD LTD TO CLD VIS AND WIND=



000
FTUS45 KMSO 262320
TAFBTM
TAF
KBTM 262320Z 2700/2724 17015KT P6SM SCT100
     FM270200 16006KT P6SM SCT080
     FM272200 11010KT P6SM VCSH BKN040=



000
FTUS45 KMSO 262320
TAFSMN
TAF
KSMN 262320Z 2700/2724 VRB04KT P6SM SCT050 BKN100
      AMD LTD TO CLD VIS AND WIND=



000
FTUS45 KMSO 262320
TAFBTM
TAF
KBTM 262320Z 2700/2724 17015KT P6SM SCT100
     FM270200 16006KT P6SM SCT080
     FM272200 11010KT P6SM VCSH BKN040=



000
FTUS45 KMSO 262320
TAFMSO
TAF
KMSO 262320Z 2700/2724 11008KT P6SM SCT050 SCT100
     FM272100 10015KT P6SM SCT080=



000
FTUS45 KMSO 262320
TAFMSO
TAF
KMSO 262320Z 2700/2724 11008KT P6SM SCT050 SCT100
     FM272100 10015KT P6SM SCT080=



000
FTUS45 KMSO 262103 AAA
TAFBTM
TAF AMD
KBTM 262103Z 2621/2718 17012KT P6SM VCSH SCT050
     FM270100 VRB06KT P6SM BKN100=



000
FTUS45 KMSO 261726
TAFMSO
TAF
KMSO 261726Z 2618/2718 12015KT P6SM SCT070
     FM262200 12010KT P6SM SCT100=



000
FTUS45 KMSO 261635 AAB
TAFBTM
TAF AMD
KBTM 261635Z 2617/2712 VRB04KT 4SM -SHSN BKN040
      TEMPO 2617/2619 2SM -SHSN BKN025
     FM262000 VRB06KT P6SM BKN100=



000
FTUS45 KMSO 261456 AAA
TAFBTM
TAF AMD
KBTM 261456Z 2615/2712 VRB04KT P6SM VCSH BKN040
      TEMPO 2615/2617 3SM -SN
     FM261800 VRB06KT P6SM BKN100=



000
FTUS45 KMSO 261446 AAA
TAFMSO
TAF AMD
KMSO 261446Z 2615/2712 12018KT P6SM BKN070
     FM262200 12010KT P6SM BKN100=



000
FTUS45 KMSO 261129
TAFSMN
TAF
KSMN 261129Z 2612/2712 02006KT P6SM VCSH OVC060
     FM261700 04006KT P6SM BKN100
      AMD LTD TO CLD VIS AND WIND=



000
FTUS45 KMSO 261129
TAFGPI
TAF
KGPI 261129Z 2612/2712 02010KT P6SM BKN060
     FM261600 36009KT P6SM BKN100=



000
FTUS45 KMSO 261129
TAFBTM
TAF
KBTM 261129Z 2612/2712 VRB04KT P6SM VCSH BKN040
     FM261600 VRB06KT P6SM BKN100=



000
FTUS45 KMSO 261129
TAFMSO
TAF
KMSO 261129Z 2612/2712 10009KT P6SM BKN070
     FM262200 VRB04KT P6SM BKN100=



000
FTUS45 KMSO 260927 AAB
TAFGPI
TAF AMD
KGPI 260927Z 2609/2706 02011KT P6SM VCSH BKN080
     FM261200 02010KT P6SM BKN060=



000
FTUS45 KMSO 260927 AAB
TAFGPI
TAF AMD
KGPI 260927Z 2609/2706 02011KT P6SM VCSH BKN080
     FM261200 02010KT P6SM BKN060=



000
FTUS45 KMSO 260859 AAC
TAFMSO
TAF AMD
KMSO 260859Z 2609/2706 09011KT P6SM VCSH BKN070
     FM261200 10009KT P6SM BKN070
     FM261800 14006KT P6SM BKN070=



000
FTUS45 KMSO 260859 AAC
TAFMSO
TAF AMD
KMSO 260859Z 2609/2706 09011KT P6SM VCSH BKN070
     FM261200 10009KT P6SM BKN070
     FM261800 14006KT P6SM BKN070=



000
FTUS45 KMSO 260829 AAB
TAFMSO
TAF AMD
KMSO 260829Z 2608/2706 09014G20KT P6SM VCSH BKN070
     FM261200 12012KT P6SM BKN070
     FM261800 14006KT P6SM BKN070=



000
FTUS45 KMSO 260729 AAA
TAFGPI
TAF AMD
KGPI 260729Z 2607/2706 01011KT 5SM -SN BKN030
     FM260900 02011KT P6SM VCSH BKN030
     FM261200 02010KT P6SM BKN060=



000
FTUS45 KMSO 260520
TAFMSO
TAF
KMSO 260520Z 2606/2706 12014G20KT P6SM VCSH BKN070
     FM261200 12012KT P6SM BKN070
     FM261800 14006KT P6SM BKN070=



000
FTUS45 KMSO 260520
TAFGPI
TAF
KGPI 260520Z 2606/2706 02015KT P6SM VCSH BKN030
     FM261200 02010KT P6SM BKN060=



000
FTUS45 KMSO 260520
TAFBTM
TAF
KBTM 260520Z 2606/2706 VRB06KT 3SM -SHSN BKN025
      TEMPO 2606/2609 1SM -SN BKN015
     FM260900 VRB04KT P6SM BKN040=



000
FTUS45 KMSO 260520
TAFSMN
TAF
KSMN 260520Z 2606/2706 VRB06KT P6SM BKN080
     FM261500 09008KT P6SM VCSH OVC060
      AMD LTD TO CLD VIS AND WIND=



000
FTUS45 KMSO 260439 AAB
TAFBTM
TAF AMD
KBTM 260439Z 2605/2624 VRB06KT 3SM -SHSN BKN025
      TEMPO 2605/2607 1SM -SN BKN015
     FM260900 VRB04KT P6SM BKN060=



000
FTUS45 KMSO 260244 AAB
TAFMSO
TAF AMD
KMSO 260244Z 2603/2624 11012KT P6SM VCSH BKN070
     FM260600 12012KT P6SM BKN070
     FM261800 14006KT P6SM BKN070=



000
FTUS45 KMSO 260244 AAB
TAFMSO
TAF AMD
KMSO 260244Z 2603/2624 11012KT P6SM VCSH BKN070
     FM260600 12012KT P6SM BKN070
     FM261800 14006KT P6SM BKN070=



000
FTUS45 KMSO 260229 AAA
TAFBTM
TAF AMD
KBTM 260229Z 2602/2624 15010KT 5SM -SHSN BKN025
     FM260600 VRB04KT P6SM BKN060=



000
FTUS45 KMSO 260229 AAA
TAFBTM
TAF AMD
KBTM 260229Z 2602/2624 15010KT 5SM -SHSN BKN025
     FM260600 VRB04KT P6SM BKN060=



000
FTUS45 KMSO 260102 AAA
TAFGPI
TAF AMD
KGPI 260102Z 2601/2624 02014G20KT P6SM BKN080
     FM261800 02008KT P6SM SCT080=



000
FTUS45 KMSO 260102 AAA
TAFGPI
TAF AMD
KGPI 260102Z 2601/2624 02014G20KT P6SM BKN080
     FM261800 02008KT P6SM SCT080=



000
FTUS45 KMSO 252334
TAFBTM
TAF
KBTM 252334Z 2600/2624 15010KT P6SM VCSH SCT025 OVC060
     FM260600 VRB04KT P6SM BKN060=



000
FTUS45 KMSO 252334
TAFGPI
TAF
KGPI 252334Z 2600/2624 VRB05KT P6SM VCSH BKN080
     FM260300 02012G20KT P6SM BKN060
     FM261800 02008KT P6SM SCT080=



000
FTUS45 KMSO 252334
TAFSMN
TAF
KSMN 252334Z 2600/2624 VRB06KT P6SM BKN080
     FM261500 09008KT P6SM VCSH OVC060
      AMD LTD TO CLD VIS AND WIND=



000
FTUS45 KMSO 252334
TAFMSO
TAF
KMSO 252334Z 2600/2624 33009KT P6SM VCSH OVC080
     FM260600 10010KT P6SM BKN080=



000
FTUS45 KMSO 252334
TAFSMN
TAF
KSMN 252334Z 2600/2624 VRB06KT P6SM BKN080
     FM261500 09008KT P6SM VCSH OVC060
      AMD LTD TO CLD VIS AND WIND=



000
FTUS45 KMSO 252334
TAFBTM
TAF
KBTM 252334Z 2600/2624 15010KT P6SM VCSH SCT025 OVC060
     FM260600 VRB04KT P6SM BKN060=



000
FTUS45 KMSO 252334
TAFGPI
TAF
KGPI 252334Z 2600/2624 VRB05KT P6SM VCSH BKN080
     FM260300 02012G20KT P6SM BKN060
     FM261800 02008KT P6SM SCT080=



000
FTUS45 KMSO 252334
TAFMSO
TAF
KMSO 252334Z 2600/2624 33009KT P6SM VCSH OVC080
     FM260600 10010KT P6SM BKN080=



    US Dept of Commerce
    National Oceanic and Atmospheric Administration
    National Weather Service
    1325 East West Highway
    Silver Spring, MD 20910
    Page Author: NWS Internet Services Team
Disclaimer
Information Quality
Credits
Glossary
Privacy Policy
Freedom of Information Act (FOIA)
About Us
Career Opportunities